Terminal Aerodrome Forecast
Issued by NWS Jackson, KY

Home | Current Version | Previous Version | Text Only | Print | Product List | Glossary On
Versions: 1 2 3 4 5 6 7 8 9 10 11 12 13 14 15 16 17 18
423
FTUS43 KJKL 170540
TAFJKL
TAF
KJKL 170540Z 1706/1806 VRB03KT P6SM SCT040 OVC070
     FM170900 19004KT 4SM SHRA BR OVC030 WS020/21040KT
     FM171400 20008KT 6SM BR VCTS OVC020CB
     FM171800 22012G22KT P6SM -SHRA VCTS OVC010CB
     FM172000 23010KT P6SM -SHRA OVC010=

USA.gov is the U.S. government's official web portal to all federal, state and local government web resources and services.